createdAt,value
2018-09-26T00:02:16.577Z,1.07
2018-09-26T00:04:48.153Z,0.90
2018-09-26T00:07:17.252Z,1.70
2018-09-26T00:09:46.578Z,1.47
2018-09-26T00:12:16.057Z,2.40
2018-09-26T00:14:45.395Z,1.00
2018-09-26T00:17:16.245Z,1.85
2018-09-26T00:19:45.339Z,2.73
2018-09-26T00:22:14.672Z,1.50
2018-09-26T00:24:44.228Z,0.90
2018-09-26T00:27:13.788Z,1.60
2018-09-26T00:29:43.098Z,1.70
2018-09-26T00:32:12.448Z,1.90
2018-09-26T00:34:41.763Z,1.80
2018-09-26T00:37:11.104Z,1.10
2018-09-26T00:39:40.650Z,0.80
2018-09-26T00:42:10.000Z,1.90
2018-09-26T00:44:39.401Z,1.00
2018-09-26T00:47:09.866Z,3.17
2018-09-26T00:49:39.709Z,2.80
2018-09-26T00:52:10.148Z,2.10
2018-09-26T00:54:39.681Z,0.70
2018-09-26T00:57:09.788Z,1.70
2018-09-26T00:59:40.202Z,1.05
2018-09-26T01:02:10.654Z,0.80
2018-09-26T01:04:39.967Z,0.60
2018-09-26T01:07:09.918Z,2.00
2018-09-26T01:09:40.265Z,1.00
2018-09-26T01:12:10.489Z,0.70
2018-09-26T01:14:40.387Z,2.30
2018-09-26T01:17:10.630Z,3.72
2018-09-26T01:19:40.556Z,0.67
2018-09-26T01:22:10.779Z,0.82
2018-09-26T01:24:40.661Z,2.63
2018-09-26T01:27:10.942Z,0.88
2018-09-26T01:29:40.813Z,1.63
2018-09-26T01:32:11.044Z,0.65
2018-09-26T01:34:41.040Z,0.90
2018-09-26T01:37:11.176Z,1.70
2018-09-26T01:39:41.040Z,1.17
2018-09-26T01:42:11.232Z,1.80
2018-09-26T01:44:40.597Z,0.80
2018-09-26T01:47:11.064Z,1.00
2018-09-26T01:49:40.377Z,0.70
2018-09-26T01:52:10.020Z,1.10
2018-09-26T01:54:39.356Z,1.43
2018-09-26T01:57:08.934Z,0.70
2018-09-26T01:59:38.263Z,0.80
2018-09-26T02:02:07.359Z,2.17
2018-09-26T02:04:42.397Z,0.80
2018-09-26T02:07:17.232Z,1.53
2018-09-26T02:09:52.287Z,0.73
2018-09-26T02:12:27.200Z,1.00
2018-09-26T02:15:02.467Z,2.50
2018-09-26T02:17:37.238Z,2.47
2018-09-26T02:20:12.105Z,0.77
2018-09-26T02:22:47.333Z,1.10
2018-09-26T02:25:22.362Z,0.70
2018-09-26T02:27:57.616Z,0.90
2018-09-26T02:30:32.406Z,2.40
2018-09-26T02:33:07.175Z,0.80
2018-09-26T02:35:41.816Z,2.50
2018-09-26T02:38:16.886Z,0.80
2018-09-26T02:40:51.922Z,1.00
2018-09-26T02:43:27.001Z,0.70
2018-09-26T02:46:02.103Z,1.73
2018-09-26T02:48:42.525Z,0.57
2018-09-26T02:51:17.217Z,0.73
2018-09-26T02:53:52.236Z,0.87
2018-09-26T02:56:27.165Z,1.03
2018-09-26T02:59:01.853Z,0.93
2018-09-26T03:01:36.841Z,0.70
2018-09-26T03:04:11.652Z,1.43
2018-09-26T03:06:46.554Z,4.73
2018-09-26T03:09:21.628Z,0.80
2018-09-26T03:11:56.717Z,0.63
2018-09-26T03:14:31.730Z,2.50
2018-09-26T03:17:07.090Z,1.53
2018-09-26T03:19:42.114Z,1.13
2018-09-26T03:22:17.023Z,0.70
2018-09-26T03:24:51.852Z,0.77
2018-09-26T03:27:26.881Z,0.83
2018-09-26T03:30:01.703Z,0.60
2018-09-26T03:32:36.348Z,1.40
2018-09-26T03:35:11.014Z,2.10
2018-09-26T03:37:45.874Z,1.20
2018-09-26T03:40:20.970Z,1.03
2018-09-26T03:42:55.836Z,3.90
2018-09-26T03:45:30.857Z,0.60
2018-09-26T03:48:05.433Z,1.47
2018-09-26T03:50:40.296Z,1.20
2018-09-26T03:53:15.241Z,0.57
2018-09-26T03:55:50.681Z,1.00
2018-09-26T03:58:25.685Z,0.97
2018-09-26T04:01:00.515Z,2.37
2018-09-26T04:03:35.316Z,2.50
2018-09-26T04:06:10.356Z,0.80
2018-09-26T04:08:44.997Z,1.17
2018-09-26T04:11:20.021Z,0.80
2018-09-26T04:13:54.641Z,1.10
2018-09-26T04:16:30.292Z,1.87
2018-09-26T04:19:05.132Z,0.80
2018-09-26T04:21:39.926Z,0.60
2018-09-26T04:24:14.950Z,0.70
2018-09-26T04:26:49.993Z,0.90
2018-09-26T04:29:25.154Z,0.83
2018-09-26T04:31:59.980Z,0.87
2018-09-26T04:34:34.775Z,0.80
2018-09-26T04:37:09.420Z,0.60
2018-09-26T04:39:44.414Z,0.83
2018-09-26T04:42:19.960Z,1.53
2018-09-26T04:44:54.785Z,0.50
2018-09-26T04:47:29.656Z,1.00
2018-09-26T04:50:04.993Z,0.70
2018-09-26T04:52:39.768Z,0.57
2018-09-26T04:55:14.613Z,0.70
2018-09-26T04:57:49.660Z,0.70
2018-09-26T05:00:24.869Z,0.80
2018-09-26T05:02:59.873Z,1.43
2018-09-26T05:05:34.985Z,1.27
2018-09-26T05:08:09.911Z,0.60
2018-09-26T05:10:45.383Z,0.80
2018-09-26T05:13:20.385Z,1.07
2018-09-26T05:15:55.687Z,1.00
2018-09-26T05:18:30.692Z,0.60
2018-09-26T05:21:05.828Z,0.87
2018-09-26T05:23:41.025Z,1.47
2018-09-26T05:26:15.916Z,1.03
2018-09-26T05:28:51.073Z,0.70
2018-09-26T05:31:26.449Z,1.73
2018-09-26T05:34:01.435Z,0.90
2018-09-26T05:36:36.349Z,0.60
2018-09-26T05:39:12.141Z,0.80
2018-09-26T05:41:47.206Z,5.13
2018-09-26T05:44:22.524Z,0.90
2018-09-26T05:46:57.332Z,1.50
2018-09-26T05:49:32.178Z,0.87
2018-09-26T05:52:06.964Z,2.70
2018-09-26T05:54:41.840Z,1.50
2018-09-26T05:57:16.736Z,0.83
2018-09-26T05:59:52.105Z,5.20
2018-09-26T06:02:26.936Z,0.60
2018-09-26T06:05:01.933Z,0.67
2018-09-26T06:07:37.019Z,0.80
2018-09-26T06:10:12.071Z,1.10
2018-09-26T06:12:47.060Z,2.93
2018-09-26T06:15:22.323Z,0.80
2018-09-26T06:17:57.141Z,0.70
2018-09-26T06:20:31.915Z,2.80
2018-09-26T06:23:06.922Z,0.73
2018-09-26T06:25:41.797Z,1.47
2018-09-26T06:28:17.081Z,0.60
2018-09-26T06:30:52.068Z,4.97
2018-09-26T06:33:26.959Z,0.60
2018-09-26T06:36:01.954Z,1.17
2018-09-26T06:38:37.024Z,1.60
2018-09-26T06:41:12.235Z,1.03
2018-09-26T06:43:47.557Z,5.60
2018-09-26T06:46:22.216Z,4.10
2018-09-26T06:48:57.000Z,0.83
2018-09-26T06:51:31.791Z,3.53
2018-09-26T06:54:06.673Z,0.70
2018-09-26T06:56:41.697Z,1.33
2018-09-26T06:59:16.733Z,1.13
2018-09-26T07:01:51.574Z,1.20
2018-09-26T07:04:26.429Z,1.27
2018-09-26T07:07:01.191Z,4.73
2018-09-26T07:09:35.964Z,4.70
2018-09-26T07:12:11.106Z,7.47
2018-09-26T07:14:46.482Z,2.03
2018-09-26T07:17:21.499Z,8.23
2018-09-26T07:19:56.691Z,12.40
2018-09-26T07:22:31.770Z,7.20
2018-09-26T07:25:06.694Z,13.57
2018-09-26T07:27:41.503Z,12.97
2018-09-26T07:30:16.513Z,14.03
2018-09-26T07:32:52.139Z,8.10
2018-09-26T07:35:27.201Z,13.93
2018-09-26T07:38:02.269Z,13.47
2018-09-26T07:40:37.400Z,15.20
2018-09-26T07:43:12.449Z,13.73
2018-09-26T07:45:47.550Z,21.67
2018-09-26T07:48:22.941Z,14.20
2018-09-26T07:50:58.423Z,18.33
2018-09-26T07:53:33.229Z,11.47
2018-09-26T07:56:08.069Z,7.50
2018-09-26T07:58:42.900Z,14.27
2018-09-26T08:01:17.804Z,23.67
2018-09-26T08:03:52.994Z,13.43
2018-09-26T08:06:28.184Z,9.73
2018-09-26T08:09:04.013Z,8.07
2018-09-26T08:11:38.808Z,6.00
2018-09-26T08:14:13.806Z,22.73
2018-09-26T08:16:48.979Z,3.13
2018-09-26T08:19:24.000Z,5.43
2018-09-26T08:21:59.009Z,6.30
2018-09-26T08:24:34.103Z,6.03
2018-09-26T08:27:09.318Z,6.30
2018-09-26T08:29:44.184Z,6.53
2018-09-26T08:32:19.440Z,10.60
2018-09-26T08:34:54.327Z,5.70
2018-09-26T08:37:28.940Z,5.40
2018-09-26T08:40:04.101Z,5.40
2018-09-26T08:42:39.154Z,6.50
2018-09-26T08:45:13.982Z,9.57
2018-09-26T08:47:48.721Z,3.20
2018-09-26T08:50:23.785Z,8.67
2018-09-26T08:52:58.613Z,5.27
2018-09-26T08:55:33.508Z,9.00
2018-09-26T08:58:08.327Z,7.93
2018-09-26T09:00:47.444Z,5.90
2018-09-26T09:03:22.776Z,2.50
2018-09-26T09:05:57.579Z,7.50
2018-09-26T09:08:32.538Z,5.60
2018-09-26T09:11:07.332Z,5.20
2018-09-26T09:13:42.323Z,3.90
2018-09-26T09:16:17.156Z,7.73
2018-09-26T09:18:51.925Z,3.13
2018-09-26T09:21:26.730Z,7.67
2018-09-26T09:24:01.498Z,3.63
2018-09-26T09:26:36.362Z,3.40
2018-09-26T09:29:11.405Z,2.73
2018-09-26T09:31:46.395Z,4.03
2018-09-26T09:34:21.553Z,8.70
2018-09-26T09:36:56.898Z,2.30
2018-09-26T09:39:31.920Z,4.63
2018-09-26T09:42:07.079Z,8.27
2018-09-26T09:44:42.088Z,5.00
2018-09-26T09:47:17.296Z,3.47
2018-09-26T09:49:52.668Z,4.93
2018-09-26T09:52:27.544Z,2.80
2018-09-26T09:55:02.543Z,2.67
2018-09-26T09:57:37.309Z,4.60
2018-09-26T10:00:13.100Z,20.57
2018-09-26T10:02:48.016Z,10.80
2018-09-26T10:05:22.966Z,2.57
2018-09-26T10:07:58.065Z,7.77
2018-09-26T10:10:33.106Z,4.83
2018-09-26T10:13:08.202Z,9.90
2018-09-26T10:15:43.243Z,3.90
2018-09-26T10:18:18.269Z,2.60
2018-09-26T10:20:53.185Z,6.93
2018-09-26T10:23:28.214Z,3.37
2018-09-26T10:26:03.027Z,7.17
2018-09-26T10:28:38.307Z,5.43
2018-09-26T10:31:13.411Z,2.80
2018-09-26T10:33:48.691Z,10.53
2018-09-26T10:36:23.481Z,8.93
2018-09-26T10:38:58.257Z,2.67
2018-09-26T10:41:33.289Z,4.47
2018-09-26T10:44:08.335Z,3.40
2018-09-26T10:46:43.377Z,6.30
2018-09-26T10:49:18.156Z,6.90
2018-09-26T10:51:52.896Z,7.80
2018-09-26T10:54:27.917Z,3.77
2018-09-26T10:57:02.749Z,3.67
2018-09-26T10:59:37.508Z,7.57
2018-09-26T11:02:12.547Z,2.10
2018-09-26T11:04:47.341Z,2.30
2018-09-26T11:07:23.236Z,7.53
2018-09-26T11:09:58.219Z,5.17
2018-09-26T11:12:33.330Z,3.20
2018-09-26T11:15:08.155Z,6.03
2018-09-26T11:17:43.345Z,15.33
2018-09-26T11:20:18.456Z,7.17
2018-09-26T11:22:55.854Z,8.40
2018-09-26T11:25:30.685Z,5.40
2018-09-26T11:28:05.723Z,5.20
2018-09-26T11:30:41.369Z,5.37
2018-09-26T11:33:16.355Z,7.53
2018-09-26T11:35:51.125Z,4.20
2018-09-26T11:38:26.163Z,4.60
2018-09-26T11:41:01.073Z,7.03
2018-09-26T11:43:35.917Z,9.23
2018-09-26T11:46:10.693Z,11.03
2018-09-26T11:48:45.450Z,11.90
2018-09-26T11:51:20.213Z,7.03
2018-09-26T11:53:55.259Z,16.47
2018-09-26T11:56:30.587Z,15.60
2018-09-26T11:59:05.840Z,8.87
2018-09-26T12:01:40.884Z,16.77
2018-09-26T12:04:15.896Z,29.23
2018-09-26T12:06:51.172Z,36.40
2018-09-26T12:09:26.185Z,36.43
2018-09-26T12:12:01.624Z,30.80
2018-09-26T12:14:36.916Z,29.30
2018-09-26T12:17:12.215Z,36.77
2018-09-26T12:19:47.244Z,39.03
2018-09-26T12:22:22.677Z,42.23
2018-09-26T12:24:57.578Z,28.30
2018-09-26T12:27:32.673Z,31.13
2018-09-26T12:30:08.470Z,24.77
2018-09-26T12:32:43.550Z,25.57
2018-09-26T12:35:18.398Z,21.73
2018-09-26T12:37:53.229Z,23.07
2018-09-26T12:40:28.110Z,21.07
2018-09-26T12:43:03.027Z,25.43
2018-09-26T12:45:38.050Z,26.33
2018-09-26T12:48:12.978Z,19.40
2018-09-26T12:50:48.203Z,12.93
2018-09-26T12:53:23.048Z,25.83
2018-09-26T12:55:57.869Z,15.50
2018-09-26T12:58:32.657Z,23.33
2018-09-26T13:01:07.668Z,17.40
2018-09-26T13:03:42.772Z,22.53
2018-09-26T13:06:17.971Z,16.70
2018-09-26T13:08:53.250Z,14.37
2018-09-26T13:11:28.119Z,18.63
2018-09-26T13:14:03.196Z,17.87
2018-09-26T13:16:38.328Z,13.90
2018-09-26T13:19:13.177Z,24.43
2018-09-26T13:21:48.173Z,16.70
2018-09-26T13:24:23.006Z,12.87
2018-09-26T13:26:57.997Z,18.13
2018-09-26T13:29:33.082Z,11.73
2018-09-26T13:32:08.219Z,14.10
2018-09-26T13:34:43.199Z,12.17
2018-09-26T13:37:18.359Z,7.50
2018-09-26T13:39:53.513Z,25.50
2018-09-26T13:42:28.907Z,16.60
2018-09-26T13:45:03.938Z,12.67
2018-09-26T13:47:39.049Z,12.93
2018-09-26T13:50:14.128Z,12.10
2018-09-26T13:52:49.172Z,9.17
2018-09-26T13:55:24.108Z,17.10
2018-09-26T13:57:59.089Z,5.73
2018-09-26T14:00:34.186Z,9.70
2018-09-26T14:03:09.617Z,5.20
2018-09-26T14:05:44.651Z,10.87
2018-09-26T14:08:19.933Z,7.07
2018-09-26T14:10:55.133Z,6.70
2018-09-26T14:13:30.271Z,5.23
2018-09-26T14:16:05.557Z,5.53
2018-09-26T14:18:40.590Z,9.53
2018-09-26T14:21:34.333Z,15.43
2018-09-26T14:24:09.258Z,6.13
2018-09-26T14:26:44.042Z,6.57
2018-09-26T14:29:18.924Z,10.00
2018-09-26T14:31:53.672Z,7.93
2018-09-26T14:34:28.513Z,5.80
2018-09-26T14:37:03.296Z,7.50
2018-09-26T14:39:38.457Z,7.87
2018-09-26T14:42:13.156Z,3.97
2018-09-26T14:44:48.344Z,11.03
2018-09-26T14:47:23.584Z,6.47
2018-09-26T14:49:58.830Z,6.00
2018-09-26T14:52:33.846Z,4.40
2018-09-26T14:55:09.190Z,8.70
2018-09-26T14:57:44.721Z,8.00
2018-09-26T15:00:19.791Z,28.80
2018-09-26T15:02:55.212Z,7.90
2018-09-26T15:05:30.256Z,5.90
2018-09-26T15:08:05.210Z,5.93
2018-09-26T15:10:40.229Z,9.63
2018-09-26T15:13:14.962Z,9.60
2018-09-26T15:15:50.291Z,3.33
2018-09-26T15:18:25.162Z,6.40
2018-09-26T15:21:00.065Z,11.97
2018-09-26T15:23:35.200Z,10.83
2018-09-26T15:26:10.119Z,5.33
2018-09-26T15:28:45.208Z,5.80
2018-09-26T15:31:20.073Z,12.70
2018-09-26T15:33:54.976Z,36.60
2018-09-26T15:36:30.054Z,12.27
2018-09-26T15:39:06.606Z,6.80
2018-09-26T15:41:41.882Z,16.10
2018-09-26T15:44:16.944Z,7.73
2018-09-26T15:46:52.014Z,7.57
2018-09-26T15:49:26.892Z,4.93
2018-09-26T15:52:02.104Z,12.77
2018-09-26T15:54:37.353Z,2.20
2018-09-26T15:57:12.600Z,10.60
2018-09-26T15:59:47.693Z,5.73
2018-09-26T16:02:22.787Z,7.70
2018-09-26T16:04:57.927Z,4.50
2018-09-26T16:07:32.820Z,4.70
2018-09-26T16:10:07.833Z,13.17
2018-09-26T16:12:43.115Z,5.30
2018-09-26T16:15:18.486Z,7.50
2018-09-26T16:17:53.723Z,11.67
2018-09-26T16:20:28.443Z,5.97
2018-09-26T16:23:03.234Z,8.07
2018-09-26T16:25:38.281Z,5.90
2018-09-26T16:28:13.303Z,5.80
2018-09-26T16:30:48.220Z,9.50
2018-09-26T16:33:23.391Z,11.57
2018-09-26T16:35:58.365Z,10.87
2018-09-26T16:38:33.165Z,8.50
2018-09-26T16:41:07.932Z,11.20
2018-09-26T16:43:42.946Z,8.30
2018-09-26T16:46:17.943Z,2.60
2018-09-26T16:48:53.037Z,9.27
2018-09-26T16:51:27.835Z,8.40
2018-09-26T16:54:02.608Z,6.30
2018-09-26T16:56:37.615Z,8.13
2018-09-26T16:59:13.055Z,4.40
2018-09-26T17:01:47.821Z,3.43
2018-09-26T17:04:22.755Z,5.40
2018-09-26T17:06:57.594Z,3.83
2018-09-26T17:09:32.292Z,5.97
2018-09-26T17:12:07.126Z,4.43
2018-09-26T17:14:41.849Z,7.07
2018-09-26T17:17:16.746Z,6.80
2018-09-26T17:19:51.586Z,6.73
2018-09-26T17:22:26.724Z,7.03
2018-09-26T17:25:01.504Z,10.20
2018-09-26T17:27:36.794Z,3.80
2018-09-26T17:30:14.789Z,15.30
2018-09-26T17:32:49.765Z,5.83
2018-09-26T17:35:24.708Z,3.50
2018-09-26T17:37:59.807Z,9.93
2018-09-26T17:40:35.062Z,7.63
2018-09-26T17:43:10.576Z,3.80
2018-09-26T17:45:45.651Z,18.70
2018-09-26T17:48:20.676Z,2.67
2018-09-26T17:50:55.808Z,8.07
2018-09-26T17:53:30.529Z,8.97
2018-09-26T17:56:05.433Z,4.57
2018-09-26T17:58:40.416Z,2.70
2018-09-26T18:01:15.455Z,4.00
2018-09-26T18:03:50.602Z,6.63
2018-09-26T18:06:25.674Z,7.63
2018-09-26T18:09:00.555Z,9.57
2018-09-26T18:11:36.733Z,1.70
2018-09-26T18:14:11.737Z,4.20
2018-09-26T18:16:46.601Z,4.30
2018-09-26T18:19:21.585Z,4.30
2018-09-26T18:21:56.657Z,6.70
2018-09-26T18:24:31.794Z,7.67
2018-09-26T18:27:06.589Z,4.97
2018-09-26T18:29:41.338Z,4.47
2018-09-26T18:32:16.339Z,6.87
2018-09-26T18:34:51.613Z,8.63
2018-09-26T18:37:26.543Z,5.07
2018-09-26T18:40:01.362Z,2.77
2018-09-26T18:42:36.135Z,3.83
2018-09-26T18:45:11.015Z,2.70
2018-09-26T18:47:45.749Z,4.17
2018-09-26T18:50:20.417Z,3.50
2018-09-26T18:52:55.495Z,4.60
2018-09-26T18:55:30.317Z,5.77
2018-09-26T18:58:05.114Z,4.33
2018-09-26T19:00:40.098Z,2.30
2018-09-26T19:03:15.071Z,2.73
2018-09-26T19:05:50.088Z,4.73
2018-09-26T19:08:25.732Z,5.17
2018-09-26T19:11:00.471Z,3.73
2018-09-26T19:13:35.326Z,2.10
2018-09-26T19:16:10.104Z,9.00
2018-09-26T19:18:45.202Z,3.77
2018-09-26T19:21:20.417Z,2.80
2018-09-26T19:23:55.244Z,13.23
2018-09-26T19:26:30.012Z,2.73
2018-09-26T19:29:04.771Z,5.23
2018-09-26T19:31:39.827Z,1.77
2018-09-26T19:34:14.600Z,3.90
2018-09-26T19:36:49.393Z,5.20
2018-09-26T19:39:24.380Z,4.00
2018-09-26T19:41:59.640Z,4.47
2018-09-26T19:44:34.373Z,3.20
2018-09-26T19:47:09.420Z,2.50
2018-09-26T19:49:44.637Z,3.93
2018-09-26T19:52:20.103Z,1.90
2018-09-26T19:54:55.099Z,2.20
2018-09-26T19:57:29.934Z,3.77
2018-09-26T20:00:04.924Z,3.83
2018-09-26T20:02:39.925Z,2.47
2018-09-26T20:05:14.816Z,5.70
2018-09-26T20:07:49.667Z,3.60
2018-09-26T20:10:24.828Z,3.37
2018-09-26T20:12:59.647Z,1.40
2018-09-26T20:15:34.394Z,3.00
2018-09-26T20:18:09.167Z,3.90
2018-09-26T20:20:43.956Z,1.67
2018-09-26T20:23:18.782Z,2.67
2018-09-26T20:25:53.729Z,1.57
2018-09-26T20:28:28.630Z,2.17
2018-09-26T20:31:03.539Z,2.13
2018-09-26T20:33:38.768Z,1.23
2018-09-26T20:36:13.771Z,2.33
2018-09-26T20:38:49.093Z,3.03
2018-09-26T20:41:23.932Z,3.13
2018-09-26T20:43:58.724Z,1.37
2018-09-26T20:46:33.482Z,1.90
2018-09-26T20:49:08.256Z,2.87
2018-09-26T20:51:43.042Z,3.90
2018-09-26T20:54:17.914Z,1.93
2018-09-26T20:56:52.866Z,1.93
2018-09-26T20:59:27.641Z,7.83
2018-09-26T21:02:03.070Z,3.07
2018-09-26T21:04:37.840Z,4.53
2018-09-26T21:07:12.856Z,1.73
2018-09-26T21:09:47.805Z,4.40
2018-09-26T21:12:22.468Z,2.13
2018-09-26T21:14:57.529Z,2.43
2018-09-26T21:17:32.489Z,2.97
2018-09-26T21:20:07.174Z,0.90
2018-09-26T21:22:42.179Z,1.33
2018-09-26T21:25:17.179Z,2.57
2018-09-26T21:27:52.164Z,2.20
2018-09-26T21:30:27.239Z,1.23
2018-09-26T21:33:01.902Z,3.47
2018-09-26T21:35:36.926Z,5.87
2018-09-26T21:38:11.912Z,1.93
2018-09-26T21:40:46.768Z,1.60
2018-09-26T21:43:21.679Z,2.23
2018-09-26T21:45:56.568Z,5.50
2018-09-26T21:48:31.332Z,1.47
2018-09-26T21:51:06.125Z,2.43
2018-09-26T21:53:41.133Z,8.43
2018-09-26T21:56:16.243Z,1.80
2018-09-26T21:58:51.292Z,4.90
2018-09-26T22:01:29.933Z,3.63
2018-09-26T22:04:04.698Z,4.50
2018-09-26T22:06:39.340Z,1.43
2018-09-26T22:09:14.224Z,2.90
2018-09-26T22:11:49.044Z,2.07
2018-09-26T22:14:23.855Z,7.13
2018-09-26T22:16:58.890Z,1.47
2018-09-26T22:19:34.116Z,4.57
2018-09-26T22:22:09.186Z,3.40
2018-09-26T22:24:44.086Z,2.23
2018-09-26T22:27:19.145Z,1.70
2018-09-26T22:29:54.180Z,5.90
2018-09-26T22:32:29.295Z,4.63
2018-09-26T22:35:04.407Z,2.20
2018-09-26T22:37:39.569Z,2.50
2018-09-26T22:40:14.543Z,4.60
2018-09-26T22:42:49.479Z,1.97
2018-09-26T22:45:24.260Z,2.80
2018-09-26T22:47:59.155Z,3.83
2018-09-26T22:50:33.984Z,7.00
2018-09-26T22:53:08.770Z,2.60
2018-09-26T22:55:44.419Z,1.30
2018-09-26T22:58:19.473Z,2.60
2018-09-26T23:00:54.405Z,1.80
2018-09-26T23:03:29.208Z,8.80
2018-09-26T23:06:04.129Z,5.67
2018-09-26T23:08:38.905Z,1.30
2018-09-26T23:11:13.941Z,2.80
2018-09-26T23:13:49.004Z,2.40
2018-09-26T23:16:24.165Z,1.60
2018-09-26T23:18:58.978Z,2.50
2018-09-26T23:21:33.836Z,2.60
2018-09-26T23:24:08.966Z,1.37
2018-09-26T23:26:44.079Z,1.70
2018-09-26T23:29:18.861Z,4.50
2018-09-26T23:31:53.621Z,2.40
2018-09-26T23:34:28.425Z,4.90
2018-09-26T23:37:03.194Z,2.13
2018-09-26T23:39:38.156Z,3.73
2018-09-26T23:42:13.138Z,2.10
2018-09-26T23:44:48.323Z,3.00
2018-09-26T23:47:23.369Z,1.63
2018-09-26T23:49:58.704Z,5.33
2018-09-26T23:52:33.562Z,2.60
2018-09-26T23:55:08.313Z,4.47
2018-09-26T23:57:43.072Z,1.90
